sensor_id;sensor_type;location;lat;lon;timestamp;pressure;altitude;pressure_sealevel;temperature;humidity
3254;BME280;1639;42.804;23.342;2024-02-23T00:00:11;73497.63;;;-148.52;100.00
3254;BME280;1639;42.804;23.342;2024-02-23T00:02:37;73497.63;;;-148.52;100.00
3254;BME280;1639;42.804;23.342;2024-02-23T00:05:03;73485.22;;;-148.52;100.00
3254;BME280;1639;42.804;23.342;2024-02-23T00:07:29;73472.81;;;-148.52;100.00
3254;BME280;1639;42.804;23.342;2024-02-23T00:09:54;73485.22;;;-148.52;100.00
3254;BME280;1639;42.804;23.342;2024-02-23T00:12:19;73472.81;;;-148.52;100.00
3254;BME280;1639;42.804;23.342;2024-02-23T00:14:45;73450.06;;;-148.52;100.00
3254;BME280;1639;42.804;23.342;2024-02-23T00:17:10;73433.53;;;-148.52;100.00
3254;BME280;1639;42.804;23.342;2024-02-23T00:19:36;73414.91;;;-148.52;100.00
3254;BME280;1639;42.804;23.342;2024-02-23T00:22:02;73404.56;;;-148.52;100.00
3254;BME280;1639;42.804;23.342;2024-02-23T00:24:29;73402.50;;;-148.52;100.00
3254;BME280;1639;42.804;23.342;2024-02-23T00:26:54;73394.22;;;-148.52;100.00
3254;BME280;1639;42.804;23.342;2024-02-23T00:29:20;73398.34;;;-148.52;100.00
3254;BME280;1639;42.804;23.342;2024-02-23T00:31:46;73412.84;;;-148.52;100.00
3254;BME280;1639;42.804;23.342;2024-02-23T00:34:12;73423.19;;;-148.52;100.00
3254;BME280;1639;42.804;23.342;2024-02-23T00:36:39;73429.38;;;-148.52;100.00
3254;BME280;1639;42.804;23.342;2024-02-23T00:39:06;73431.44;;;-148.52;100.00
3254;BME280;1639;42.804;23.342;2024-02-23T00:41:32;73439.72;;;-148.52;100.00
3254;BME280;1639;42.804;23.342;2024-02-23T00:43:58;73464.53;;;-148.52;100.00
3254;BME280;1639;42.804;23.342;2024-02-23T00:46:23;73476.97;;;-148.52;100.00
3254;BME280;1639;42.804;23.342;2024-02-23T00:48:48;73487.31;;;-148.52;100.00
3254;BME280;1639;42.804;23.342;2024-02-23T00:51:14;73483.16;;;-148.52;100.00
3254;BME280;1639;42.804;23.342;2024-02-23T00:53:39;73493.50;;;-148.52;100.00
3254;BME280;1639;42.804;23.342;2024-02-23T00:56:05;73499.72;;;-148.52;100.00
3254;BME280;1639;42.804;23.342;2024-02-23T00:58:30;73487.31;;;-148.52;100.00
3254;BME280;1639;42.804;23.342;2024-02-23T01:00:56;73472.81;;;-148.52;100.00
3254;BME280;1639;42.804;23.342;2024-02-23T01:03:21;73462.47;;;-148.52;100.00
3254;BME280;1639;42.804;23.342;2024-02-23T01:05:47;73456.28;;;-148.52;100.00
3254;BME280;1639;42.804;23.342;2024-02-23T01:08:12;73452.13;;;-148.52;100.00
3254;BME280;1639;42.804;23.342;2024-02-23T01:10:37;73443.84;;;-148.52;100.00
3254;BME280;1639;42.804;23.342;2024-02-23T01:13:03;73439.72;;;-148.52;100.00
3254;BME280;1639;42.804;23.342;2024-02-23T01:15:30;73427.31;;;-148.52;100.00
3254;BME280;1639;42.804;23.342;2024-02-23T01:17:55;73425.25;;;-148.52;100.00
3254;BME280;1639;42.804;23.342;2024-02-23T01:20:21;73445.94;;;-148.52;100.00
3254;BME280;1639;42.804;23.342;2024-02-23T01:22:47;73435.59;;;-148.52;100.00
3254;BME280;1639;42.804;23.342;2024-02-23T01:25:12;73458.34;;;-148.52;100.00
3254;BME280;1639;42.804;23.342;2024-02-23T01:27:40;73466.63;;;-148.52;100.00
3254;BME280;1639;42.804;23.342;2024-02-23T01:30:05;73476.97;;;-148.52;100.00
3254;BME280;1639;42.804;23.342;2024-02-23T01:32:31;73468.69;;;-148.52;100.00
3254;BME280;1639;42.804;23.342;2024-02-23T01:34:56;73458.34;;;-148.52;100.00
3254;BME280;1639;42.804;23.342;2024-02-23T01:37:22;73472.81;;;-148.52;100.00
3254;BME280;1639;42.804;23.342;2024-02-23T01:39:47;73468.69;;;-148.52;100.00
3254;BME280;1639;42.804;23.342;2024-02-23T01:42:12;73458.34;;;-148.52;100.00
3254;BME280;1639;42.804;23.342;2024-02-23T01:44:39;73445.94;;;-148.52;100.00
3254;BME280;1639;42.804;23.342;2024-02-23T01:47:04;73443.84;;;-148.52;100.00
3254;BME280;1639;42.804;23.342;2024-02-23T01:49:30;73429.38;;;-148.52;100.00
3254;BME280;1639;42.804;23.342;2024-02-23T01:51:58;73421.09;;;-148.52;100.00
3254;BME280;1639;42.804;23.342;2024-02-23T01:54:24;73419.03;;;-148.52;100.00
3254;BME280;1639;42.804;23.342;2024-02-23T01:56:50;73408.69;;;-148.52;100.00
3254;BME280;1639;42.804;23.342;2024-02-23T01:59:15;73406.63;;;-148.52;100.00
3254;BME280;1639;42.804;23.342;2024-02-23T02:01:43;73402.50;;;-148.52;100.00
3254;BME280;1639;42.804;23.342;2024-02-23T02:04:09;73390.09;;;-148.52;100.00
3254;BME280;1639;42.804;23.342;2024-02-23T02:06:34;73385.94;;;-148.52;100.00
3254;BME280;1639;42.804;23.342;2024-02-23T02:09:00;73402.50;;;-148.52;100.00
3254;BME280;1639;42.804;23.342;2024-02-23T02:11:25;73458.34;;;-148.52;100.00
3254;BME280;1639;42.804;23.342;2024-02-23T02:13:51;73497.63;;;-148.52;100.00
3254;BME280;1639;42.804;23.342;2024-02-23T02:16:16;73507.97;;;-148.52;100.00
3254;BME280;1639;42.804;23.342;2024-02-23T02:18:41;73543.16;;;-148.52;100.00
3254;BME280;1639;42.804;23.342;2024-02-23T02:21:07;73534.88;;;-148.52;100.00
3254;BME280;1639;42.804;23.342;2024-02-23T02:23:32;73545.22;;;-148.52;100.00
3254;BME280;1639;42.804;23.342;2024-02-23T02:25:58;73532.81;;;-148.52;100.00
3254;BME280;1639;42.804;23.342;2024-02-23T02:28:25;73522.47;;;-148.52;100.00
3254;BME280;1639;42.804;23.342;2024-02-23T02:30:51;73522.47;;;-148.52;100.00
3254;BME280;1639;42.804;23.342;2024-02-23T02:33:20;73512.13;;;-148.52;100.00
3254;BME280;1639;42.804;23.342;2024-02-23T02:35:45;73518.31;;;-148.52;100.00
3254;BME280;1639;42.804;23.342;2024-02-23T02:38:11;73495.56;;;-148.52;100.00
3254;BME280;1639;42.804;23.342;2024-02-23T02:40:37;73481.09;;;-148.52;100.00
3254;BME280;1639;42.804;23.342;2024-02-23T02:43:03;73456.28;;;-148.52;100.00
3254;BME280;1639;42.804;23.342;2024-02-23T02:45:28;73435.59;;;-148.52;100.00
3254;BME280;1639;42.804;23.342;2024-02-23T02:47:54;73433.53;;;-148.52;100.00
3254;BME280;1639;42.804;23.342;2024-02-23T02:50:19;73427.31;;;-148.52;100.00
3254;BME280;1639;42.804;23.342;2024-02-23T02:52:45;73419.03;;;-148.52;100.00
3254;BME280;1639;42.804;23.342;2024-02-23T02:55:10;73421.09;;;-148.52;100.00
3254;BME280;1639;42.804;23.342;2024-02-23T02:57:35;73423.19;;;-148.52;100.00
3254;BME280;1639;42.804;23.342;2024-02-23T03:00:02;73408.69;;;-148.52;100.00
3254;BME280;1639;42.804;23.342;2024-02-23T03:02:30;73421.09;;;-148.52;100.00
3254;BME280;1639;42.804;23.342;2024-02-23T03:04:56;73414.91;;;-148.52;100.00
3254;BME280;1639;42.804;23.342;2024-02-23T03:07:21;73408.69;;;-148.52;100.00
3254;BME280;1639;42.804;23.342;2024-02-23T03:09:47;73427.31;;;-148.52;100.00
3254;BME280;1639;42.804;23.342;2024-02-23T03:12:12;73435.59;;;-148.52;100.00
3254;BME280;1639;42.804;23.342;2024-02-23T03:14:37;73443.84;;;-148.52;100.00
3254;BME280;1639;42.804;23.342;2024-02-23T03:17:06;73458.34;;;-148.52;100.00
3254;BME280;1639;42.804;23.342;2024-02-23T03:19:31;73485.22;;;-148.52;100.00
3254;BME280;1639;42.804;23.342;2024-02-23T03:21:57;73481.09;;;-148.52;100.00
3254;BME280;1639;42.804;23.342;2024-02-23T03:24:23;73470.75;;;-148.52;100.00
3254;BME280;1639;42.804;23.342;2024-02-23T03:26:48;73468.69;;;-148.52;100.00
3254;BME280;1639;42.804;23.342;2024-02-23T03:29:14;73454.19;;;-148.52;100.00
3254;BME280;1639;42.804;23.342;2024-02-23T03:31:39;73452.13;;;-148.52;100.00
3254;BME280;1639;42.804;23.342;2024-02-23T03:34:05;73441.78;;;-148.52;100.00
3254;BME280;1639;42.804;23.342;2024-02-23T03:36:30;73441.78;;;-148.52;100.00
3254;BME280;1639;42.804;23.342;2024-02-23T03:38:55;73441.78;;;-148.52;100.00
3254;BME280;1639;42.804;23.342;2024-02-23T03:41:21;73445.94;;;-148.52;100.00
3254;BME280;1639;42.804;23.342;2024-02-23T03:43:46;73439.72;;;-148.52;100.00
3254;BME280;1639;42.804;23.342;2024-02-23T03:46:11;73443.84;;;-148.52;100.00
3254;BME280;1639;42.804;23.342;2024-02-23T03:48:37;73462.47;;;-148.52;100.00
3254;BME280;1639;42.804;23.342;2024-02-23T03:51:04;73462.47;;;-148.52;100.00
3254;BME280;1639;42.804;23.342;2024-02-23T03:53:30;73456.28;;;-148.52;100.00
3254;BME280;1639;42.804;23.342;2024-02-23T03:55:56;73464.53;;;-148.52;100.00
3254;BME280;1639;42.804;23.342;2024-02-23T03:58:22;73452.13;;;-148.52;100.00
3254;BME280;1639;42.804;23.342;2024-02-23T04:00:47;73464.53;;;-148.52;100.00
3254;BME280;1639;42.804;23.342;2024-02-23T04:03:13;73458.34;;;-148.52;100.00
3254;BME280;1639;42.804;23.342;2024-02-23T04:05:38;73470.75;;;-148.52;100.00
3254;BME280;1639;42.804;23.342;2024-02-23T04:08:04;73456.28;;;-148.52;100.00
3254;BME280;1639;42.804;23.342;2024-02-23T04:10:29;73458.34;;;-148.52;100.00
3254;BME280;1639;42.804;23.342;2024-02-23T04:12:54;73448.00;;;-148.52;100.00
3254;BME280;1639;42.804;23.342;2024-02-23T04:15:20;73456.28;;;-148.52;100.00
3254;BME280;1639;42.804;23.342;2024-02-23T04:17:46;73468.69;;;-148.52;100.00
3254;BME280;1639;42.804;23.342;2024-02-23T04:20:11;73481.09;;;-148.52;100.00
3254;BME280;1639;42.804;23.342;2024-02-23T04:22:37;73479.03;;;-148.52;100.00
3254;BME280;1639;42.804;23.342;2024-02-23T04:25:04;73466.63;;;-148.52;100.00
3254;BME280;1639;42.804;23.342;2024-02-23T04:27:30;73479.03;;;-148.52;100.00
3254;BME280;1639;42.804;23.342;2024-02-23T04:29:55;73468.69;;;-148.52;100.00
3254;BME280;1639;42.804;23.342;2024-02-23T04:32:21;73489.38;;;-148.52;100.00
3254;BME280;1639;42.804;23.342;2024-02-23T04:34:46;73505.91;;;-148.52;100.00
3254;BME280;1639;42.804;23.342;2024-02-23T04:37:11;73493.50;;;-148.52;100.00
3254;BME280;1639;42.804;23.342;2024-02-23T04:39:37;73497.63;;;-148.52;100.00
3254;BME280;1639;42.804;23.342;2024-02-23T04:42:04;73520.41;;;-148.52;100.00
3254;BME280;1639;42.804;23.342;2024-02-23T04:44:29;73532.81;;;-148.52;100.00
3254;BME280;1639;42.804;23.342;2024-02-23T04:46:54;73543.16;;;-148.52;100.00
3254;BME280;1639;42.804;23.342;2024-02-23T04:49:20;73551.41;;;-148.52;100.00
3254;BME280;1639;42.804;23.342;2024-02-23T04:51:45;73559.69;;;-148.52;100.00
3254;BME280;1639;42.804;23.342;2024-02-23T04:54:11;73530.75;;;-148.52;100.00
3254;BME280;1639;42.804;23.342;2024-02-23T04:56:36;73522.47;;;-148.52;100.00
3254;BME280;1639;42.804;23.342;2024-02-23T04:59:02;73518.31;;;-148.52;100.00
3254;BME280;1639;42.804;23.342;2024-02-23T05:01:27;73518.31;;;-148.52;100.00
3254;BME280;1639;42.804;23.342;2024-02-23T05:03:52;73512.13;;;-148.52;100.00
3254;BME280;1639;42.804;23.342;2024-02-23T05:06:18;73530.75;;;-148.52;100.00
3254;BME280;1639;42.804;23.342;2024-02-23T05:08:43;73528.66;;;-148.52;100.00
3254;BME280;1639;42.804;23.342;2024-02-23T05:11:09;73530.75;;;-148.52;100.00
3254;BME280;1639;42.804;23.342;2024-02-23T05:13:35;73539.00;;;-148.52;100.00
3254;BME280;1639;42.804;23.342;2024-02-23T05:16:02;73530.75;;;-148.52;100.00
3254;BME280;1639;42.804;23.342;2024-02-23T05:18:27;73530.75;;;-148.52;100.00
3254;BME280;1639;42.804;23.342;2024-02-23T05:20:53;73526.59;;;-148.52;100.00
3254;BME280;1639;42.804;23.342;2024-02-23T05:23:18;73522.47;;;-148.52;100.00
3254;BME280;1639;42.804;23.342;2024-02-23T05:25:43;73522.47;;;-148.52;100.00
3254;BME280;1639;42.804;23.342;2024-02-23T05:28:09;73499.72;;;-148.52;100.00
3254;BME280;1639;42.804;23.342;2024-02-23T05:30:34;73493.50;;;-148.52;100.00
3254;BME280;1639;42.804;23.342;2024-02-23T05:32:59;73476.97;;;-148.52;100.00
3254;BME280;1639;42.804;23.342;2024-02-23T05:35:28;73458.34;;;-148.52;100.00
3254;BME280;1639;42.804;23.342;2024-02-23T05:37:53;73445.94;;;-148.52;100.00
3254;BME280;1639;42.804;23.342;2024-02-23T05:40:20;73443.84;;;-148.52;100.00
3254;BME280;1639;42.804;23.342;2024-02-23T05:42:45;73443.84;;;-148.52;100.00
3254;BME280;1639;42.804;23.342;2024-02-23T05:45:11;73429.38;;;-148.52;100.00
3254;BME280;1639;42.804;23.342;2024-02-23T05:47:40;73408.69;;;-148.52;100.00
3254;BME280;1639;42.804;23.342;2024-02-23T05:50:07;73394.22;;;-148.52;100.00
3254;BME280;1639;42.804;23.342;2024-02-23T05:52:34;73377.66;;;-148.52;100.00
3254;BME280;1639;42.804;23.342;2024-02-23T05:55:00;73371.47;;;-148.52;100.00
3254;BME280;1639;42.804;23.342;2024-02-23T05:57:26;73398.34;;;-148.52;100.00
3254;BME280;1639;42.804;23.342;2024-02-23T05:59:52;73419.03;;;-148.52;100.00
3254;BME280;1639;42.804;23.342;2024-02-23T06:02:18;73406.63;;;-148.52;100.00
3254;BME280;1639;42.804;23.342;2024-02-23T06:04:43;73396.28;;;-148.52;100.00
3254;BME280;1639;42.804;23.342;2024-02-23T06:07:09;73398.34;;;-148.52;100.00
3254;BME280;1639;42.804;23.342;2024-02-23T06:09:35;73381.81;;;-148.52;100.00
3254;BME280;1639;42.804;23.342;2024-02-23T06:12:00;73357.00;;;-148.52;100.00
3254;BME280;1639;42.804;23.342;2024-02-23T06:14:26;73369.41;;;-148.52;100.00
3254;BME280;1639;42.804;23.342;2024-02-23T06:16:51;73381.81;;;-148.52;100.00
3254;BME280;1639;42.804;23.342;2024-02-23T06:19:16;73396.28;;;-148.52;100.00
3254;BME280;1639;42.804;23.342;2024-02-23T06:21:42;73390.09;;;-148.52;100.00
3254;BME280;1639;42.804;23.342;2024-02-23T06:24:07;73363.19;;;-148.52;100.00
3254;BME280;1639;42.804;23.342;2024-02-23T06:26:34;73334.22;;;-148.52;100.00
3254;BME280;1639;42.804;23.342;2024-02-23T06:29:00;73315.63;;;-148.52;100.00
3254;BME280;1639;42.804;23.342;2024-02-23T06:31:25;73311.47;;;-148.52;100.00
3254;BME280;1639;42.804;23.342;2024-02-23T06:33:51;73274.25;;;-148.52;100.00
3254;BME280;1639;42.804;23.342;2024-02-23T06:36:17;73257.72;;;-148.52;100.00
3254;BME280;1639;42.804;23.342;2024-02-23T06:38:44;73259.78;;;-148.52;100.00
3254;BME280;1639;42.804;23.342;2024-02-23T06:41:11;73265.97;;;-148.52;99.19
3254;BME280;1639;42.804;23.342;2024-02-23T06:43:36;73228.75;;;-148.52;100.00
3254;BME280;1639;42.804;23.342;2024-02-23T06:46:08;73199.78;;;-148.52;98.09
3254;BME280;1639;42.804;23.342;2024-02-23T06:48:35;73174.97;;;-148.52;91.02
3254;BME280;1639;42.804;23.342;2024-02-23T06:51:00;73181.19;;;-148.52;89.22
3254;BME280;1639;42.804;23.342;2024-02-23T06:53:26;73179.09;;;-148.52;88.09
3254;BME280;1639;42.804;23.342;2024-02-23T06:55:51;73181.19;;;-148.52;67.09
3254;BME280;1639;42.804;23.342;2024-02-23T06:58:17;73181.19;;;-148.52;66.36
3254;BME280;1639;42.804;23.342;2024-02-23T07:00:44;73172.91;;;-148.52;66.05
3254;BME280;1639;42.804;23.342;2024-02-23T07:03:09;73160.50;;;-148.52;65.96
3254;BME280;1639;42.804;23.342;2024-02-23T07:05:35;73152.22;;;-148.52;65.25
3254;BME280;1639;42.804;23.342;2024-02-23T07:08:01;73160.50;;;-148.52;65.04
3254;BME280;1639;42.804;23.342;2024-02-23T07:10:27;73129.47;;;-148.52;66.00
3254;BME280;1639;42.804;23.342;2024-02-23T07:12:53;73096.38;;;-148.52;65.10
3254;BME280;1639;42.804;23.342;2024-02-23T07:15:19;73083.97;;;-148.52;63.55
3254;BME280;1639;42.804;23.342;2024-02-23T07:17:45;73038.47;;;-148.52;63.38
3254;BME280;1639;42.804;23.342;2024-02-23T07:20:11;73034.34;;;-148.52;62.10
3254;BME280;1639;42.804;23.342;2024-02-23T07:22:36;73003.31;;;-148.52;60.75
3254;BME280;1639;42.804;23.342;2024-02-23T07:25:02;72980.56;;;-148.52;60.05
3254;BME280;1639;42.804;23.342;2024-02-23T07:27:29;72947.47;;;-148.52;59.83
3254;BME280;1639;42.804;23.342;2024-02-23T07:29:56;72918.50;;;-148.52;59.25
3254;BME280;1639;42.804;23.342;2024-02-23T07:32:21;72901.97;;;-148.52;59.30
3254;BME280;1639;42.804;23.342;2024-02-23T07:34:46;72889.56;;;-148.52;57.78
3254;BME280;1639;42.804;23.342;2024-02-23T07:37:13;72864.75;;;-148.52;57.20
3254;BME280;1639;42.804;23.342;2024-02-23T07:39:38;72862.66;;;-148.52;57.46
3254;BME280;1639;42.804;23.342;2024-02-23T07:42:04;72877.16;;;-148.52;57.72
3254;BME280;1639;42.804;23.342;2024-02-23T07:44:31;72887.50;;;-148.52;57.84
3254;BME280;1639;42.804;23.342;2024-02-23T07:46:56;72901.97;;;-148.52;57.98
3254;BME280;1639;42.804;23.342;2024-02-23T07:49:23;72887.50;;;-148.52;58.08
3254;BME280;1639;42.804;23.342;2024-02-23T07:51:49;72870.94;;;-148.52;57.89
3254;BME280;1639;42.804;23.342;2024-02-23T07:54:15;72839.91;;;-148.52;56.81
3254;BME280;1639;42.804;23.342;2024-02-23T07:56:40;72810.97;;;-148.52;57.02
3254;BME280;1639;42.804;23.342;2024-02-23T07:59:05;72773.75;;;-148.52;55.82
3254;BME280;1639;42.804;23.342;2024-02-23T08:01:31;72753.06;;;-148.52;55.27
3254;BME280;1639;42.804;23.342;2024-02-23T08:03:57;72724.09;;;-148.52;55.67
3254;BME280;1639;42.804;23.342;2024-02-23T08:06:22;72713.75;;;-148.52;54.96
3254;BME280;1639;42.804;23.342;2024-02-23T08:08:48;72691.00;;;-148.52;54.51
3254;BME280;1639;42.804;23.342;2024-02-23T08:11:13;72676.53;;;-148.52;53.52
3254;BME280;1639;42.804;23.342;2024-02-23T08:13:39;72639.31;;;-148.52;53.30
3254;BME280;1639;42.804;23.342;2024-02-23T08:16:06;72616.56;;;-148.52;53.46
3254;BME280;1639;42.804;23.342;2024-02-23T08:18:31;72579.34;;;-148.52;52.25
3254;BME280;1639;42.804;23.342;2024-02-23T08:20:58;72544.19;;;-148.52;51.99
3254;BME280;1639;42.804;23.342;2024-02-23T08:23:23;72523.50;;;-148.52;51.04
3254;BME280;1639;42.804;23.342;2024-02-23T08:25:49;72492.50;;;-148.52;50.55
3254;BME280;1639;42.804;23.342;2024-02-23T08:28:15;72473.88;;;-148.52;48.64
3254;BME280;1639;42.804;23.342;2024-02-23T08:30:41;72478.00;;;-148.52;48.11
3254;BME280;1639;42.804;23.342;2024-02-23T08:33:06;72473.88;;;-148.52;47.55
3254;BME280;1639;42.804;23.342;2024-02-23T08:35:34;72426.31;;;-148.52;46.15
3254;BME280;1639;42.804;23.342;2024-02-23T08:37:59;72378.75;;;-148.52;45.47
3254;BME280;1639;42.804;23.342;2024-02-23T08:40:25;72368.41;;;-148.52;44.69
3254;BME280;1639;42.804;23.342;2024-02-23T08:42:50;72368.41;;;-148.52;44.13
3254;BME280;1639;42.804;23.342;2024-02-23T08:45:17;72335.31;;;-148.52;44.38
3254;BME280;1639;42.804;23.342;2024-02-23T08:47:42;72312.59;;;-148.52;43.70
3254;BME280;1639;42.804;23.342;2024-02-23T08:50:08;72289.84;;;-148.52;43.76
3254;BME280;1639;42.804;23.342;2024-02-23T08:52:34;72269.16;;;-148.52;43.12
3254;BME280;1639;42.804;23.342;2024-02-23T08:54:59;72273.28;;;-148.52;43.08
3254;BME280;1639;42.804;23.342;2024-02-23T08:57:27;72281.56;;;-148.52;43.40
3254;BME280;1639;42.804;23.342;2024-02-23T08:59:52;72273.28;;;-148.52;43.39
3254;BME280;1639;42.804;23.342;2024-02-23T09:02:18;72265.03;;;-148.52;42.75
3254;BME280;1639;42.804;23.342;2024-02-23T09:04:45;72260.88;;;-148.52;43.06
3254;BME280;1639;42.804;23.342;2024-02-23T09:07:11;72240.22;;;-148.52;43.15
3254;BME280;1639;42.804;23.342;2024-02-23T09:09:36;72229.88;;;-148.52;42.51
3254;BME280;1639;42.804;23.342;2024-02-23T09:12:02;72256.75;;;-148.52;42.65
3254;BME280;1639;42.804;23.342;2024-02-23T09:14:28;72223.66;;;-148.52;41.99
3254;BME280;1639;42.804;23.342;2024-02-23T09:16:53;72223.66;;;-148.52;42.76
3254;BME280;1639;42.804;23.342;2024-02-23T09:19:19;72200.91;;;-148.52;42.36
3254;BME280;1639;42.804;23.342;2024-02-23T09:21:45;72229.88;;;-148.52;43.36
3254;BME280;1639;42.804;23.342;2024-02-23T09:24:11;72213.31;;;-148.52;42.37
3254;BME280;1639;42.804;23.342;2024-02-23T09:26:36;72225.72;;;-148.52;42.55
3254;BME280;1639;42.804;23.342;2024-02-23T09:29:02;72217.47;;;-148.52;41.97
3254;BME280;1639;42.804;23.342;2024-02-23T09:31:27;72240.22;;;-148.52;43.18
3254;BME280;1639;42.804;23.342;2024-02-23T09:33:56;72231.94;;;-148.52;42.46
3254;BME280;1639;42.804;23.342;2024-02-23T09:36:22;72260.88;;;-148.52;42.54
3254;BME280;1639;42.804;23.342;2024-02-23T09:38:47;72300.16;;;-148.52;42.92
3254;BME280;1639;42.804;23.342;2024-02-23T09:41:21;72304.31;;;-148.52;43.25
3254;BME280;1639;42.804;23.342;2024-02-23T09:43:47;72300.16;;;-148.52;43.35
3254;BME280;1639;42.804;23.342;2024-02-23T09:46:17;72327.06;;;-148.52;44.34
3254;BME280;1639;42.804;23.342;2024-02-23T09:48:43;72298.09;;;-148.52;43.47
3254;BME280;1639;42.804;23.342;2024-02-23T09:51:10;72298.09;;;-148.52;44.21
3254;BME280;1639;42.804;23.342;2024-02-23T09:53:37;72275.34;;;-148.52;43.15
3254;BME280;1639;42.804;23.342;2024-02-23T09:56:04;72271.22;;;-148.52;42.98
3254;BME280;1639;42.804;23.342;2024-02-23T09:58:31;72234.00;;;-148.52;43.64
3254;BME280;1639;42.804;23.342;2024-02-23T10:00:58;72196.78;;;-148.52;43.10
3254;BME280;1639;42.804;23.342;2024-02-23T10:03:27;72188.50;;;-148.52;42.29
3254;BME280;1639;42.804;23.342;2024-02-23T10:05:59;72217.47;;;-148.52;42.84
3254;BME280;1639;42.804;23.342;2024-02-23T10:08:27;72211.25;;;-148.52;42.28
3254;BME280;1639;42.804;23.342;2024-02-23T10:10:53;72246.41;;;-148.52;41.77
3254;BME280;1639;42.804;23.342;2024-02-23T10:13:20;72283.63;;;-148.52;42.54
3254;BME280;1639;42.804;23.342;2024-02-23T10:15:47;72320.84;;;-148.52;42.80
3254;BME280;1639;42.804;23.342;2024-02-23T10:18:12;72343.59;;;-148.52;43.68
3254;BME280;1639;42.804;23.342;2024-02-23T10:20:38;72358.06;;;-148.52;43.67
3254;BME280;1639;42.804;23.342;2024-02-23T10:23:04;72339.47;;;-148.52;43.69
3254;BME280;1639;42.804;23.342;2024-02-23T10:25:32;72335.31;;;-148.52;43.68
3254;BME280;1639;42.804;23.342;2024-02-23T10:27:58;72327.06;;;-148.52;43.38
3254;BME280;1639;42.804;23.342;2024-02-23T10:30:26;72318.78;;;-148.52;43.99
3254;BME280;1639;42.804;23.342;2024-02-23T10:32:55;72312.59;;;-148.52;43.31
3254;BME280;1639;42.804;23.342;2024-02-23T10:35:22;72312.59;;;-148.52;43.68
3254;BME280;1639;42.804;23.342;2024-02-23T10:37:49;72302.25;;;-148.52;43.41
3254;BME280;1639;42.804;23.342;2024-02-23T10:40:16;72302.25;;;-148.52;43.93
3254;BME280;1639;42.804;23.342;2024-02-23T10:42:46;72287.75;;;-148.52;42.97
3254;BME280;1639;42.804;23.342;2024-02-23T10:45:17;72281.56;;;-148.52;42.94
3254;BME280;1639;42.804;23.342;2024-02-23T10:47:43;72271.22;;;-148.52;42.26
3254;BME280;1639;42.804;23.342;2024-02-23T10:50:09;72250.53;;;-148.52;42.33
3254;BME280;1639;42.804;23.342;2024-02-23T10:52:35;72244.34;;;-148.52;42.35
3254;BME280;1639;42.804;23.342;2024-02-23T10:55:02;72223.66;;;-148.52;42.20
3254;BME280;1639;42.804;23.342;2024-02-23T10:57:31;72229.88;;;-148.52;42.07
3254;BME280;1639;42.804;23.342;2024-02-23T10:59:59;72231.94;;;-148.52;41.45
3254;BME280;1639;42.804;23.342;2024-02-23T11:02:27;72236.06;;;-148.52;41.83
3254;BME280;1639;42.804;23.342;2024-02-23T11:04:55;72215.38;;;-148.52;42.38
3254;BME280;1639;42.804;23.342;2024-02-23T11:07:22;72198.84;;;-148.52;41.91
3254;BME280;1639;42.804;23.342;2024-02-23T11:09:54;72165.75;;;-148.52;41.74
3254;BME280;1639;42.804;23.342;2024-02-23T11:12:25;72128.53;;;-148.52;41.63
3254;BME280;1639;42.804;23.342;2024-02-23T11:14:50;72118.22;;;-148.52;40.43
3254;BME280;1639;42.804;23.342;2024-02-23T11:17:19;72147.16;;;-148.52;40.50
3254;BME280;1639;42.804;23.342;2024-02-23T11:19:51;72165.75;;;-148.52;41.09
3254;BME280;1639;42.804;23.342;2024-02-23T11:22:26;72145.09;;;-148.52;40.79
3254;BME280;1639;42.804;23.342;2024-02-23T11:24:53;72097.53;;;-148.52;41.63
3254;BME280;1639;42.804;23.342;2024-02-23T11:27:19;72049.97;;;-148.52;40.50
3254;BME280;1639;42.804;23.342;2024-02-23T11:29:47;72027.22;;;-148.52;40.52
3254;BME280;1639;42.804;23.342;2024-02-23T11:32:16;72008.63;;;-148.52;39.90
3254;BME280;1639;42.804;23.342;2024-02-23T11:34:54;72016.88;;;-148.52;40.07
3254;BME280;1639;42.804;23.342;2024-02-23T11:37:20;72002.41;;;-148.52;39.88
3254;BME280;1639;42.804;23.342;2024-02-23T11:39:46;72021.03;;;-148.52;40.42
3254;BME280;1639;42.804;23.342;2024-02-23T11:42:12;72012.75;;;-148.52;40.82
3254;BME280;1639;42.804;23.342;2024-02-23T11:44:37;71975.53;;;-148.52;39.24
3254;BME280;1639;42.804;23.342;2024-02-23T11:47:03;71967.25;;;-148.52;38.72
3254;BME280;1639;42.804;23.342;2024-02-23T11:49:29;71967.25;;;-148.52;38.53
3254;BME280;1639;42.804;23.342;2024-02-23T11:51:55;71938.31;;;-148.52;38.52
3254;BME280;1639;42.804;23.342;2024-02-23T11:54:20;71961.06;;;-148.52;38.10
3254;BME280;1639;42.804;23.342;2024-02-23T11:56:47;71975.53;;;-148.52;38.33
3254;BME280;1639;42.804;23.342;2024-02-23T11:59:14;71996.22;;;-148.52;38.70
3254;BME280;1639;42.804;23.342;2024-02-23T12:01:40;71973.47;;;-148.52;38.25
3254;BME280;1639;42.804;23.342;2024-02-23T12:04:05;71969.34;;;-148.52;38.36
3254;BME280;1639;42.804;23.342;2024-02-23T12:06:31;71996.22;;;-148.52;38.01
3254;BME280;1639;42.804;23.342;2024-02-23T12:08:57;71975.53;;;-148.52;38.08
3254;BME280;1639;42.804;23.342;2024-02-23T12:11:23;71996.22;;;-148.52;38.46
3254;BME280;1639;42.804;23.342;2024-02-23T12:13:49;72033.44;;;-148.52;39.47
3254;BME280;1639;42.804;23.342;2024-02-23T12:16:16;72045.84;;;-148.52;39.08
3254;BME280;1639;42.804;23.342;2024-02-23T12:18:41;72045.84;;;-148.52;39.43
3254;BME280;1639;42.804;23.342;2024-02-23T12:21:08;72039.63;;;-148.52;39.47
3254;BME280;1639;42.804;23.342;2024-02-23T12:23:44;72047.91;;;-148.52;38.87
3254;BME280;1639;42.804;23.342;2024-02-23T12:26:12;72043.78;;;-148.52;39.05
3254;BME280;1639;42.804;23.342;2024-02-23T12:28:38;72021.03;;;-148.52;38.79
3254;BME280;1639;42.804;23.342;2024-02-23T12:31:04;72016.88;;;-148.52;38.56
3254;BME280;1639;42.804;23.342;2024-02-23T12:33:40;72008.63;;;-148.52;38.51
3254;BME280;1639;42.804;23.342;2024-02-23T12:36:06;72008.63;;;-148.52;38.73
3254;BME280;1639;42.804;23.342;2024-02-23T12:38:33;72012.75;;;-148.52;38.76